sensor_id;sensor_type;location;lat;lon;timestamp;pressure;altitude;pressure_sealevel;temperature;humidity
15670;BME280;18524;45.190;5.732;2022-11-20T00:02:56;98937.84;;;9.61;87.01
15670;BME280;18524;45.190;5.732;2022-11-20T00:07:46;98940.97;;;9.44;88.71
15670;BME280;18524;45.190;5.732;2022-11-20T00:12:36;98937.03;;;9.49;86.64
15670;BME280;18524;45.190;5.732;2022-11-20T00:17:27;98943.72;;;9.42;88.93
15670;BME280;18524;45.190;5.732;2022-11-20T00:22:17;98944.78;;;9.51;87.13
15670;BME280;18524;45.190;5.732;2022-11-20T00:27:07;98948.72;;;9.45;87.84
15670;BME280;18524;45.190;5.732;2022-11-20T00:31:58;98964.91;;;9.39;87.08
15670;BME280;18524;45.190;5.732;2022-11-20T00:36:48;98958.38;;;9.33;87.13
15670;BME280;18524;45.190;5.732;2022-11-20T00:41:38;98956.09;;;9.40;88.09
15670;BME280;18524;45.190;5.732;2022-11-20T00:46:29;98958.13;;;9.36;88.56
15670;BME280;18524;45.190;5.732;2022-11-20T00:51:22;98964.78;;;9.40;86.84
15670;BME280;18524;45.190;5.732;2022-11-20T00:56:15;98966.69;;;9.38;88.02
15670;BME280;18524;45.190;5.732;2022-11-20T01:01:08;98971.78;;;9.29;87.93
15670;BME280;18524;45.190;5.732;2022-11-20T01:06:05;98987.88;;;9.35;86.98
15670;BME280;18524;45.190;5.732;2022-11-20T01:11:05;98991.19;;;9.37;87.79
15670;BME280;18524;45.190;5.732;2022-11-20T01:16:02;98997.47;;;9.24;88.92
15670;BME280;18524;45.190;5.732;2022-11-20T01:20:52;99000.81;;;9.26;91.29
15670;BME280;18524;45.190;5.732;2022-11-20T01:25:43;99010.91;;;9.08;90.13
15670;BME280;18524;45.190;5.732;2022-11-20T01:30:33;99009.47;;;8.93;91.93
15670;BME280;18524;45.190;5.732;2022-11-20T01:35:23;99010.88;;;8.86;91.68
15670;BME280;18524;45.190;5.732;2022-11-20T01:40:14;99014.09;;;8.89;90.54
15670;BME280;18524;45.190;5.732;2022-11-20T01:50:32;99004.97;;;9.06;89.38
15670;BME280;18524;45.190;5.732;2022-11-20T01:55:26;99012.09;;;8.93;91.61
15670;BME280;18524;45.190;5.732;2022-11-20T02:00:19;99007.78;;;8.92;91.40
15670;BME280;18524;45.190;5.732;2022-11-20T02:05:28;99009.13;;;8.97;88.51
15670;BME280;18524;45.190;5.732;2022-11-20T02:10:21;99008.03;;;8.89;88.25
15670;BME280;18524;45.190;5.732;2022-11-20T02:15:11;99014.72;;;8.93;90.41
15670;BME280;18524;45.190;5.732;2022-11-20T02:20:02;99014.56;;;8.83;91.78
15670;BME280;18524;45.190;5.732;2022-11-20T02:24:52;99018.34;;;8.79;91.66
15670;BME280;18524;45.190;5.732;2022-11-20T02:30:01;99020.22;;;8.66;90.95
15670;BME280;18524;45.190;5.732;2022-11-20T02:34:52;99009.78;;;8.66;90.98
15670;BME280;18524;45.190;5.732;2022-11-20T02:39:44;99018.97;;;8.24;94.60
15670;BME280;18524;45.190;5.732;2022-11-20T02:44:36;99021.25;;;8.28;97.20
15670;BME280;18524;45.190;5.732;2022-11-20T02:49:26;99022.00;;;8.18;96.74
15670;BME280;18524;45.190;5.732;2022-11-20T02:54:16;99019.91;;;7.99;98.07
15670;BME280;18524;45.190;5.732;2022-11-20T02:59:07;99023.72;;;8.06;98.15
15670;BME280;18524;45.190;5.732;2022-11-20T03:03:57;99017.91;;;8.02;99.51
15670;BME280;18524;45.190;5.732;2022-11-20T03:08:48;99017.41;;;7.97;97.77
15670;BME280;18524;45.190;5.732;2022-11-20T03:13:38;99023.19;;;7.77;97.43
15670;BME280;18524;45.190;5.732;2022-11-20T03:18:28;99028.19;;;7.80;98.42
15670;BME280;18524;45.190;5.732;2022-11-20T03:23:19;99024.34;;;7.86;99.71
15670;BME280;18524;45.190;5.732;2022-11-20T03:28:09;99026.22;;;7.83;100.00
15670;BME280;18524;45.190;5.732;2022-11-20T03:33:00;99033.63;;;7.77;100.00
15670;BME280;18524;45.190;5.732;2022-11-20T03:37:50;99037.78;;;7.79;99.55
15670;BME280;18524;45.190;5.732;2022-11-20T03:42:40;99040.41;;;7.79;97.86
15670;BME280;18524;45.190;5.732;2022-11-20T03:47:37;99034.06;;;7.83;96.79
15670;BME280;18524;45.190;5.732;2022-11-20T03:52:27;99036.22;;;7.90;96.11
15670;BME280;18524;45.190;5.732;2022-11-20T03:57:17;99040.84;;;7.86;96.07
15670;BME280;18524;45.190;5.732;2022-11-20T04:02:08;99049.25;;;7.53;98.32
15670;BME280;18524;45.190;5.732;2022-11-20T04:06:58;99065.13;;;7.37;100.00
15670;BME280;18524;45.190;5.732;2022-11-20T04:11:48;99073.47;;;7.30;100.00
15670;BME280;18524;45.190;5.732;2022-11-20T04:16:39;99069.91;;;7.31;98.40
15670;BME280;18524;45.190;5.732;2022-11-20T04:21:29;99073.88;;;7.24;98.93
15670;BME280;18524;45.190;5.732;2022-11-20T04:26:21;99086.94;;;7.24;100.00
15670;BME280;18524;45.190;5.732;2022-11-20T04:31:17;99096.94;;;7.42;100.00
15670;BME280;18524;45.190;5.732;2022-11-20T04:36:12;99090.50;;;7.48;100.00
15670;BME280;18524;45.190;5.732;2022-11-20T04:41:05;99081.81;;;7.22;100.00
15670;BME280;18524;45.190;5.732;2022-11-20T04:45:57;99085.88;;;7.26;100.00
15670;BME280;18524;45.190;5.732;2022-11-20T04:50:47;99085.69;;;7.29;100.00
15670;BME280;18524;45.190;5.732;2022-11-20T04:55:38;99091.19;;;7.37;100.00
15670;BME280;18524;45.190;5.732;2022-11-20T05:00:28;99099.88;;;7.12;100.00
15670;BME280;18524;45.190;5.732;2022-11-20T05:05:18;99096.94;;;7.17;100.00
15670;BME280;18524;45.190;5.732;2022-11-20T05:10:09;99103.53;;;7.22;100.00
15670;BME280;18524;45.190;5.732;2022-11-20T05:14:59;99099.25;;;7.21;100.00
15670;BME280;18524;45.190;5.732;2022-11-20T05:19:49;99101.13;;;7.19;99.70
15670;BME280;18524;45.190;5.732;2022-11-20T05:24:40;99099.25;;;7.21;100.00
15670;BME280;18524;45.190;5.732;2022-11-20T05:29:30;99094.03;;;7.09;100.00
15670;BME280;18524;45.190;5.732;2022-11-20T05:34:21;99096.09;;;7.29;100.00
15670;BME280;18524;45.190;5.732;2022-11-20T05:39:11;99098.81;;;7.28;100.00
15670;BME280;18524;45.190;5.732;2022-11-20T05:44:01;99104.34;;;7.36;100.00
15670;BME280;18524;45.190;5.732;2022-11-20T05:48:52;99100.91;;;7.35;100.00
15670;BME280;18524;45.190;5.732;2022-11-20T05:53:43;99094.34;;;7.30;100.00
15670;BME280;18524;45.190;5.732;2022-11-20T05:58:34;99093.09;;;7.22;100.00
15670;BME280;18524;45.190;5.732;2022-11-20T06:03:24;99096.94;;;7.42;100.00
15670;BME280;18524;45.190;5.732;2022-11-20T06:08:14;99100.28;;;7.32;100.00
15670;BME280;18524;45.190;5.732;2022-11-20T06:13:05;99093.28;;;7.32;100.00
15670;BME280;18524;45.190;5.732;2022-11-20T06:17:55;99090.38;;;7.24;99.53
15670;BME280;18524;45.190;5.732;2022-11-20T06:22:45;99096.94;;;7.17;100.00
15670;BME280;18524;45.190;5.732;2022-11-20T06:27:36;99104.47;;;7.09;100.00
15670;BME280;18524;45.190;5.732;2022-11-20T06:32:26;99104.00;;;7.02;99.92
15670;BME280;18524;45.190;5.732;2022-11-20T06:37:16;99106.63;;;7.02;99.75
15670;BME280;18524;45.190;5.732;2022-11-20T06:42:07;99106.53;;;7.16;100.00
15670;BME280;18524;45.190;5.732;2022-11-20T06:46:57;99096.31;;;7.26;100.00
15670;BME280;18524;45.190;5.732;2022-11-20T06:51:49;99100.59;;;7.27;100.00
15670;BME280;18524;45.190;5.732;2022-11-20T06:56:40;99107.28;;;7.18;100.00
15670;BME280;18524;45.190;5.732;2022-11-20T07:01:30;99107.06;;;7.21;100.00
15670;BME280;18524;45.190;5.732;2022-11-20T07:06:21;99104.34;;;7.10;100.00
15670;BME280;18524;45.190;5.732;2022-11-20T07:11:11;99111.03;;;7.14;100.00
15670;BME280;18524;45.190;5.732;2022-11-20T07:16:04;99113.94;;;7.22;100.00
15670;BME280;18524;45.190;5.732;2022-11-20T07:20:55;99119.78;;;7.39;100.00
15670;BME280;18524;45.190;5.732;2022-11-20T07:25:45;99131.28;;;7.36;100.00
15670;BME280;18524;45.190;5.732;2022-11-20T07:30:36;99138.28;;;7.61;98.70
15670;BME280;18524;45.190;5.732;2022-11-20T07:35:27;99141.50;;;7.65;98.95
15670;BME280;18524;45.190;5.732;2022-11-20T07:40:18;99151.53;;;7.71;98.81
15670;BME280;18524;45.190;5.732;2022-11-20T07:45:09;99153.22;;;7.84;98.28
15670;BME280;18524;45.190;5.732;2022-11-20T07:50:00;99156.84;;;7.95;98.16
15670;BME280;18524;45.190;5.732;2022-11-20T07:54:50;99152.84;;;8.02;94.51
15670;BME280;18524;45.190;5.732;2022-11-20T07:59:40;99149.25;;;8.28;94.61
15670;BME280;18524;45.190;5.732;2022-11-20T08:04:31;99137.97;;;8.64;94.10
15670;BME280;18524;45.190;5.732;2022-11-20T08:09:22;99142.75;;;8.94;92.01
15670;BME280;18524;45.190;5.732;2022-11-20T08:14:12;99134.22;;;9.03;90.31
15670;BME280;18524;45.190;5.732;2022-11-20T08:19:03;99144.25;;;9.21;88.50
15670;BME280;18524;45.190;5.732;2022-11-20T08:23:53;99140.00;;;9.31;87.43
15670;BME280;18524;45.190;5.732;2022-11-20T08:28:43;99148.13;;;9.61;86.00
15670;BME280;18524;45.190;5.732;2022-11-20T08:33:34;99156.25;;;9.69;83.08
15670;BME280;18524;45.190;5.732;2022-11-20T08:38:24;99143.03;;;10.05;81.65
15670;BME280;18524;45.190;5.732;2022-11-20T08:43:15;99147.81;;;10.22;82.05
15670;BME280;18524;45.190;5.732;2022-11-20T08:48:05;99140.91;;;10.21;80.25
15670;BME280;18524;45.190;5.732;2022-11-20T08:53:02;99138.09;;;10.56;80.31
15670;BME280;18524;45.190;5.732;2022-11-20T08:57:52;99142.00;;;10.61;78.20
15670;BME280;18524;45.190;5.732;2022-11-20T09:02:43;99132.50;;;10.92;77.09
15670;BME280;18524;45.190;5.732;2022-11-20T09:07:33;99137.66;;;10.83;79.48
15670;BME280;18524;45.190;5.732;2022-11-20T09:12:23;99147.03;;;10.96;78.64
15670;BME280;18524;45.190;5.732;2022-11-20T09:17:13;99145.88;;;11.10;77.26
15670;BME280;18524;45.190;5.732;2022-11-20T09:22:05;99148.16;;;11.04;76.61
15670;BME280;18524;45.190;5.732;2022-11-20T09:26:55;99154.41;;;11.23;76.90
15670;BME280;18524;45.190;5.732;2022-11-20T09:31:45;99153.31;;;11.26;75.09
15670;BME280;18524;45.190;5.732;2022-11-20T09:36:36;99154.34;;;11.55;76.29
15670;BME280;18524;45.190;5.732;2022-11-20T09:47:12;99166.91;;;12.43;72.07
15670;BME280;18524;45.190;5.732;2022-11-20T09:57:15;99177.06;;;12.58;70.05
15670;BME280;18524;45.190;5.732;2022-11-20T10:07:27;99181.38;;;12.68;70.23
15670;BME280;18524;45.190;5.732;2022-11-20T10:29:01;99184.63;;;12.32;68.48
15670;BME280;18524;45.190;5.732;2022-11-20T10:33:59;99184.88;;;12.29;65.24
15670;BME280;18524;45.190;5.732;2022-11-20T10:38:54;99193.81;;;12.16;69.04
15670;BME280;18524;45.190;5.732;2022-11-20T10:43:48;99199.78;;;12.18;67.73
15670;BME280;18524;45.190;5.732;2022-11-20T10:48:43;99183.22;;;11.97;68.20
15670;BME280;18524;45.190;5.732;2022-11-20T10:58:55;99190.16;;;11.98;69.79
15670;BME280;18524;45.190;5.732;2022-11-20T11:03:48;99177.75;;;12.10;69.40
15670;BME280;18524;45.190;5.732;2022-11-20T11:08:39;99176.50;;;12.14;68.08
15670;BME280;18524;45.190;5.732;2022-11-20T11:13:30;99178.94;;;12.27;68.13
15670;BME280;18524;45.190;5.732;2022-11-20T11:18:30;99173.16;;;12.52;67.35
15670;BME280;18524;45.190;5.732;2022-11-20T11:23:34;99163.47;;;12.62;67.61
15670;BME280;18524;45.190;5.732;2022-11-20T11:28:27;99152.16;;;12.91;66.88
15670;BME280;18524;45.190;5.732;2022-11-20T11:33:23;99126.81;;;13.28;66.22
15670;BME280;18524;45.190;5.732;2022-11-20T11:38:22;99125.13;;;13.47;62.14
15670;BME280;18524;45.190;5.732;2022-11-20T11:43:20;99109.78;;;13.79;59.99
15670;BME280;18524;45.190;5.732;2022-11-20T11:48:42;99105.31;;;14.17;58.96
15670;BME280;18524;45.190;5.732;2022-11-20T11:53:33;99083.88;;;14.47;57.75
15670;BME280;18524;45.190;5.732;2022-11-20T11:58:51;99070.47;;;14.76;57.49
15670;BME280;18524;45.190;5.732;2022-11-20T12:03:42;99062.25;;;14.97;58.35
15670;BME280;18524;45.190;5.732;2022-11-20T12:18:20;99050.03;;;14.96;56.03
15670;BME280;18524;45.190;5.732;2022-11-20T12:28:43;99021.06;;;15.12;54.96
15670;BME280;18524;45.190;5.732;2022-11-20T12:34:02;99026.78;;;14.99;54.11
15670;BME280;18524;45.190;5.732;2022-11-20T12:44:12;98998.16;;;14.33;54.28
15670;BME280;18524;45.190;5.732;2022-11-20T12:55:15;98980.25;;;13.92;56.85
15670;BME280;18524;45.190;5.732;2022-11-20T13:00:17;98970.56;;;13.92;57.40
15670;BME280;18524;45.190;5.732;2022-11-20T13:15:35;98977.75;;;13.45;58.91
15670;BME280;18524;45.190;5.732;2022-11-20T13:20:27;98984.25;;;13.51;60.74
15670;BME280;18524;45.190;5.732;2022-11-20T13:25:30;98973.91;;;13.30;55.05
15670;BME280;18524;45.190;5.732;2022-11-20T13:30:23;98969.19;;;13.33;57.78
15670;BME280;18524;45.190;5.732;2022-11-20T13:35:30;98973.09;;;13.29;58.48
15670;BME280;18524;45.190;5.732;2022-11-20T13:40:22;98983.81;;;13.18;57.78
15670;BME280;18524;45.190;5.732;2022-11-20T13:45:28;98989.91;;;13.19;58.13
15670;BME280;18524;45.190;5.732;2022-11-20T13:50:22;98983.28;;;13.05;57.70
15670;BME280;18524;45.190;5.732;2022-11-20T14:00:26;98974.00;;;13.01;58.86
15670;BME280;18524;45.190;5.732;2022-11-20T14:05:21;98968.59;;;13.02;54.87
15670;BME280;18524;45.190;5.732;2022-11-20T14:10:24;98975.25;;;12.97;56.76
15670;BME280;18524;45.190;5.732;2022-11-20T14:15:30;98982.59;;;12.93;58.08
15670;BME280;18524;45.190;5.732;2022-11-20T14:20:23;98965.19;;;12.82;58.91
15670;BME280;18524;45.190;5.732;2022-11-20T14:30:13;98963.97;;;12.67;60.28
15670;BME280;18524;45.190;5.732;2022-11-20T14:35:10;98957.59;;;12.60;59.58
15670;BME280;18524;45.190;5.732;2022-11-20T14:40:21;98971.88;;;12.48;60.17
15670;BME280;18524;45.190;5.732;2022-11-20T14:45:12;98968.97;;;12.51;59.97
15670;BME280;18524;45.190;5.732;2022-11-20T14:50:03;98971.56;;;12.61;62.02
15670;BME280;18524;45.190;5.732;2022-11-20T14:54:55;98958.03;;;12.46;61.14
15670;BME280;18524;45.190;5.732;2022-11-20T14:59:46;98943.81;;;12.29;61.76
15670;BME280;18524;45.190;5.732;2022-11-20T15:04:50;98945.84;;;12.26;61.94
15670;BME280;18524;45.190;5.732;2022-11-20T15:09:41;98956.66;;;12.13;61.64
15670;BME280;18524;45.190;5.732;2022-11-20T15:14:31;98959.56;;;12.00;64.35
15670;BME280;18524;45.190;5.732;2022-11-20T15:19:26;98968.38;;;11.80;63.85
15670;BME280;18524;45.190;5.732;2022-11-20T15:24:17;98975.56;;;11.78;64.02
15670;BME280;18524;45.190;5.732;2022-11-20T15:29:09;98976.75;;;11.74;63.72
15670;BME280;18524;45.190;5.732;2022-11-20T15:34:01;98966.81;;;11.77;64.14
15670;BME280;18524;45.190;5.732;2022-11-20T15:38:51;98985.03;;;11.59;65.61
15670;BME280;18524;45.190;5.732;2022-11-20T15:43:41;98982.22;;;11.51;65.34
15670;BME280;18524;45.190;5.732;2022-11-20T15:48:35;98980.56;;;11.50;68.27
15670;BME280;18524;45.190;5.732;2022-11-20T15:53:27;98993.00;;;11.48;68.86
15670;BME280;18524;45.190;5.732;2022-11-20T15:58:17;98987.78;;;11.58;68.81
15670;BME280;18524;45.190;5.732;2022-11-20T16:03:12;98978.66;;;11.52;68.44
15670;BME280;18524;45.190;5.732;2022-11-20T16:08:02;98990.22;;;11.50;69.34
15670;BME280;18524;45.190;5.732;2022-11-20T16:12:52;98984.72;;;11.53;69.75
15670;BME280;18524;45.190;5.732;2022-11-20T16:18:01;98984.84;;;11.51;70.46
15670;BME280;18524;45.190;5.732;2022-11-20T16:22:51;99016.19;;;11.43;70.60
15670;BME280;18524;45.190;5.732;2022-11-20T16:27:42;99036.09;;;11.46;69.71
15670;BME280;18524;45.190;5.732;2022-11-20T16:32:32;99046.66;;;11.55;68.27
15670;BME280;18524;45.190;5.732;2022-11-20T16:37:22;99042.16;;;11.37;68.75
15670;BME280;18524;45.190;5.732;2022-11-20T16:42:13;99047.06;;;11.20;70.74
15670;BME280;18524;45.190;5.732;2022-11-20T16:47:03;99057.03;;;11.26;72.04
15670;BME280;18524;45.190;5.732;2022-11-20T16:51:54;99055.09;;;11.28;71.97
15670;BME280;18524;45.190;5.732;2022-11-20T16:56:44;99074.19;;;11.31;70.81
15670;BME280;18524;45.190;5.732;2022-11-20T17:01:37;99095.13;;;11.21;71.32
15670;BME280;18524;45.190;5.732;2022-11-20T17:06:31;99099.16;;;11.25;72.08
15670;BME280;18524;45.190;5.732;2022-11-20T17:11:22;99113.06;;;11.16;72.75
15670;BME280;18524;45.190;5.732;2022-11-20T17:16:16;99112.09;;;11.17;73.81
15670;BME280;18524;45.190;5.732;2022-11-20T17:21:07;99117.56;;;11.14;74.17
15670;BME280;18524;45.190;5.732;2022-11-20T17:31:03;99135.59;;;11.18;74.83
15670;BME280;18524;45.190;5.732;2022-11-20T17:35:53;99138.22;;;11.18;74.73
15670;BME280;18524;45.190;5.732;2022-11-20T17:40:44;99138.09;;;11.20;75.33
15670;BME280;18524;45.190;5.732;2022-11-20T17:45:35;99157.63;;;11.27;75.34
15670;BME280;18524;45.190;5.732;2022-11-20T17:50:25;99161.59;;;11.21;78.55
15670;BME280;18524;45.190;5.732;2022-11-20T17:55:16;99166.00;;;11.21;80.03
15670;BME280;18524;45.190;5.732;2022-11-20T18:00:06;99174.97;;;11.18;83.29
15670;BME280;18524;45.190;5.732;2022-11-20T18:04:59;99190.59;;;11.20;84.48
15670;BME280;18524;45.190;5.732;2022-11-20T18:09:49;99194.44;;;11.16;85.76
15670;BME280;18524;45.190;5.732;2022-11-20T18:14:40;99201.56;;;11.14;83.85
15670;BME280;18524;45.190;5.732;2022-11-20T18:19:35;99188.03;;;10.98;81.90
15670;BME280;18524;45.190;5.732;2022-11-20T18:24:26;99199.69;;;11.05;77.92
15670;BME280;18524;45.190;5.732;2022-11-20T18:29:16;99200.00;;;10.90;77.01
15670;BME280;18524;45.190;5.732;2022-11-20T18:34:07;99204.66;;;10.76;78.23
15670;BME280;18524;45.190;5.732;2022-11-20T18:39:00;99214.13;;;10.67;80.48
15670;BME280;18524;45.190;5.732;2022-11-20T18:43:51;99233.31;;;10.68;83.28
15670;BME280;18524;45.190;5.732;2022-11-20T18:48:59;99214.38;;;10.64;84.80
15670;BME280;18524;45.190;5.732;2022-11-20T18:53:50;99213.41;;;10.65;85.91
15670;BME280;18524;45.190;5.732;2022-11-20T18:58:40;99201.00;;;10.67;83.47
15670;BME280;18524;45.190;5.732;2022-11-20T19:03:31;99212.69;;;10.63;80.23
15670;BME280;18524;45.190;5.732;2022-11-20T19:08:21;99198.16;;;10.59;82.21
15670;BME280;18524;45.190;5.732;2022-11-20T19:13:11;99201.75;;;10.58;84.37
15670;BME280;18524;45.190;5.732;2022-11-20T19:18:02;99209.13;;;10.64;84.42
15670;BME280;18524;45.190;5.732;2022-11-20T19:22:52;99220.69;;;10.61;88.16
15670;BME280;18524;45.190;5.732;2022-11-20T19:27:43;99208.91;;;10.56;85.59
15670;BME280;18524;45.190;5.732;2022-11-20T19:32:33;99207.84;;;10.47;85.89
15670;BME280;18524;45.190;5.732;2022-11-20T19:37:24;99216.78;;;10.45;83.87
15670;BME280;18524;45.190;5.732;2022-11-20T19:42:14;99239.44;;;10.46;85.92
15670;BME280;18524;45.190;5.732;2022-11-20T19:47:05;99230.25;;;10.51;85.45
15670;BME280;18524;45.190;5.732;2022-11-20T19:51:56;99225.84;;;10.29;85.72
15670;BME280;18524;45.190;5.732;2022-11-20T19:56:46;99228.47;;;10.29;90.52
15670;BME280;18524;45.190;5.732;2022-11-20T20:01:38;99239.19;;;10.26;90.06
15670;BME280;18524;45.190;5.732;2022-11-20T20:06:29;99240.13;;;10.37;92.11
15670;BME280;18524;45.190;5.732;2022-11-20T20:11:23;99233.47;;;10.44;94.89
15670;BME280;18524;45.190;5.732;2022-11-20T20:16:16;99231.56;;;10.34;93.12
15670;BME280;18524;45.190;5.732;2022-11-20T20:21:10;99232.63;;;10.21;92.53
15670;BME280;18524;45.190;5.732;2022-11-20T20:26:01;99228.00;;;10.24;94.73
15670;BME280;18524;45.190;5.732;2022-11-20T20:30:52;99223.09;;;10.09;92.94
15670;BME280;18524;45.190;5.732;2022-11-20T20:35:43;99224.75;;;10.10;94.25
15670;BME280;18524;45.190;5.732;2022-11-20T20:40:34;99234.75;;;10.16;95.51
15670;BME280;18524;45.190;5.732;2022-11-20T20:45:24;99241.78;;;10.15;96.05
15670;BME280;18524;45.190;5.732;2022-11-20T20:50:14;99266.78;;;10.19;99.21
15670;BME280;18524;45.190;5.732;2022-11-20T20:55:06;99275.59;;;10.18;100.00
15670;BME280;18524;45.190;5.732;2022-11-20T20:59:56;99275.41;;;10.21;95.46
15670;BME280;18524;45.190;5.732;2022-11-20T21:04:47;99278.97;;;10.20;96.10
15670;BME280;18524;45.190;5.732;2022-11-20T21:09:38;99286.19;;;10.06;99.20
15670;BME280;18524;45.190;5.732;2022-11-20T21:14:29;99287.75;;;10.08;99.51
15670;BME280;18524;45.190;5.732;2022-11-20T21:19:19;99300.25;;;10.05;100.00
15670;BME280;18524;45.190;5.732;2022-11-20T21:24:10;99308.84;;;10.07;100.00
15670;BME280;18524;45.190;5.732;2022-11-20T21:29:00;99310.38;;;10.09;100.00
15670;BME280;18524;45.190;5.732;2022-11-20T21:33:52;99320.03;;;10.09;100.00
15670;BME280;18524;45.190;5.732;2022-11-20T21:38:43;99309.28;;;10.00;100.00
15670;BME280;18524;45.190;5.732;2022-11-20T21:43:34;99313.56;;;10.01;100.00
15670;BME280;18524;45.190;5.732;2022-11-20T21:48:27;99314.19;;;10.05;100.00
15670;BME280;18524;45.190;5.732;2022-11-20T21:53:18;99313.78;;;9.98;100.00
15670;BME280;18524;45.190;5.732;2022-11-20T21:58:08;99312.00;;;9.99;100.00
15670;BME280;18524;45.190;5.732;2022-11-20T22:02:58;99315.78;;;9.84;100.00
15670;BME280;18524;45.190;5.732;2022-11-20T22:07:49;99331.53;;;9.95;100.00
15670;BME280;18524;45.190;5.732;2022-11-20T22:12:39;99336.03;;;9.82;100.00
15670;BME280;18524;45.190;5.732;2022-11-20T22:17:30;99333.63;;;9.79;100.00
15670;BME280;18524;45.190;5.732;2022-11-20T22:22:38;99325.28;;;9.74;100.00
15670;BME280;18524;45.190;5.732;2022-11-20T22:27:29;99326.63;;;9.79;100.00
15670;BME280;18524;45.190;5.732;2022-11-20T22:32:20;99306.00;;;9.75;100.00
15670;BME280;18524;45.190;5.732;2022-11-20T22:37:10;99303.56;;;9.60;100.00
15670;BME280;18524;45.190;5.732;2022-11-20T22:42:01;99329.66;;;9.38;100.00
15670;BME280;18524;45.190;5.732;2022-11-20T22:46:51;99327.66;;;9.42;100.00
15670;BME280;18524;45.190;5.732;2022-11-20T22:51:41;99321.72;;;9.27;100.00
15670;BME280;18524;45.190;5.732;2022-11-20T22:56:32;99319.72;;;9.06;100.00
15670;BME280;18524;45.190;5.732;2022-11-20T23:01:28;99334.13;;;9.12;100.00
15670;BME280;18524;45.190;5.732;2022-11-20T23:06:19;99322.06;;;8.98;100.00
15670;BME280;18524;45.190;5.732;2022-11-20T23:11:12;99321.03;;;8.75;100.00
15670;BME280;18524;45.190;5.732;2022-11-20T23:16:08;99325.44;;;8.75;100.00
15670;BME280;18524;45.190;5.732;2022-11-20T23:21:07;99321.38;;;8.71;100.00
15670;BME280;18524;45.190;5.732;2022-11-20T23:26:06;99333.59;;;8.70;100.00
15670;BME280;18524;45.190;5.732;2022-11-20T23:30:57;99325.25;;;8.65;100.00
15670;BME280;18524;45.190;5.732;2022-11-20T23:35:47;99333.22;;;8.64;100.00
15670;BME280;18524;45.190;5.732;2022-11-20T23:40:38;99337.47;;;8.77;100.00
15670;BME280;18524;45.190;5.732;2022-11-20T23:45:28;99329.81;;;8.87;100.00
15670;BME280;18524;45.190;5.732;2022-11-20T23:50:19;99326.56;;;8.84;100.00
15670;BME280;18524;45.190;5.732;2022-11-20T23:55:09;99329.50;;;8.79;100.00
15670;BME280;18524;45.190;5.732;2022-11-20T23:59:59;99325.56;;;8.73;100.00
